sensor_id;sensor_type;location;lat;lon;timestamp;pressure;altitude;pressure_sealevel;temperature;humidity
75290;BME280;63883;48.996;20.804;2024-01-30T00:01:36;98643.72;;;-5.69;100.00
75290;BME280;63883;48.996;20.804;2024-01-30T00:04:02;98638.44;;;-5.73;100.00
75290;BME280;63883;48.996;20.804;2024-01-30T00:06:28;98645.38;;;-5.69;100.00
75290;BME280;63883;48.996;20.804;2024-01-30T00:08:54;98644.56;;;-5.68;100.00
75290;BME280;63883;48.996;20.804;2024-01-30T00:11:19;98638.84;;;-5.67;100.00
75290;BME280;63883;48.996;20.804;2024-01-30T00:13:45;98643.94;;;-5.66;100.00
75290;BME280;63883;48.996;20.804;2024-01-30T00:16:24;98644.69;;;-5.67;100.00
75290;BME280;63883;48.996;20.804;2024-01-30T00:18:51;98640.69;;;-5.65;100.00
75290;BME280;63883;48.996;20.804;2024-01-30T00:21:17;98645.09;;;-5.61;100.00
75290;BME280;63883;48.996;20.804;2024-01-30T00:23:43;98637.88;;;-5.58;100.00
75290;BME280;63883;48.996;20.804;2024-01-30T00:26:08;98640.81;;;-5.63;100.00
75290;BME280;63883;48.996;20.804;2024-01-30T00:28:34;98637.47;;;-5.64;100.00
75290;BME280;63883;48.996;20.804;2024-01-30T00:31:00;98633.59;;;-5.72;100.00
75290;BME280;63883;48.996;20.804;2024-01-30T00:33:26;98646.31;;;-5.67;100.00
75290;BME280;63883;48.996;20.804;2024-01-30T00:35:51;98649.47;;;-5.70;100.00
75290;BME280;63883;48.996;20.804;2024-01-30T00:38:17;98650.09;;;-5.72;100.00
75290;BME280;63883;48.996;20.804;2024-01-30T00:40:43;98644.06;;;-5.76;100.00
75290;BME280;63883;48.996;20.804;2024-01-30T00:43:08;98650.56;;;-5.78;100.00
75290;BME280;63883;48.996;20.804;2024-01-30T00:45:34;98644.38;;;-5.83;100.00
75290;BME280;63883;48.996;20.804;2024-01-30T00:48:00;98645.81;;;-5.86;100.00
75290;BME280;63883;48.996;20.804;2024-01-30T00:50:25;98647.16;;;-5.92;100.00
75290;BME280;63883;48.996;20.804;2024-01-30T00:52:51;98650.59;;;-5.89;100.00
75290;BME280;63883;48.996;20.804;2024-01-30T00:55:17;98649.53;;;-5.93;100.00
75290;BME280;63883;48.996;20.804;2024-01-30T00:57:42;98649.63;;;-5.92;100.00
75290;BME280;63883;48.996;20.804;2024-01-30T01:00:08;98642.19;;;-5.92;100.00
75290;BME280;63883;48.996;20.804;2024-01-30T01:02:35;98639.72;;;-5.92;100.00
75290;BME280;63883;48.996;20.804;2024-01-30T01:05:01;98627.69;;;-5.97;100.00
75290;BME280;63883;48.996;20.804;2024-01-30T01:07:27;98638.19;;;-6.01;100.00
75290;BME280;63883;48.996;20.804;2024-01-30T01:09:53;98629.00;;;-6.02;100.00
75290;BME280;63883;48.996;20.804;2024-01-30T01:12:19;98635.47;;;-6.04;100.00
75290;BME280;63883;48.996;20.804;2024-01-30T01:14:44;98637.31;;;-6.02;100.00
75290;BME280;63883;48.996;20.804;2024-01-30T01:17:11;98642.41;;;-6.00;100.00
75290;BME280;63883;48.996;20.804;2024-01-30T01:19:37;98635.06;;;-5.99;100.00
75290;BME280;63883;48.996;20.804;2024-01-30T01:22:03;98635.25;;;-5.96;100.00
75290;BME280;63883;48.996;20.804;2024-01-30T01:24:31;98627.38;;;-5.90;100.00
75290;BME280;63883;48.996;20.804;2024-01-30T01:26:58;98629.53;;;-5.95;100.00
75290;BME280;63883;48.996;20.804;2024-01-30T01:29:24;98631.38;;;-5.92;100.00
75290;BME280;63883;48.996;20.804;2024-01-30T01:31:57;98635.59;;;-5.91;100.00
75290;BME280;63883;48.996;20.804;2024-01-30T01:34:23;98623.72;;;-5.95;100.00
75290;BME280;63883;48.996;20.804;2024-01-30T01:36:50;98636.13;;;-5.95;100.00
75290;BME280;63883;48.996;20.804;2024-01-30T01:39:16;98636.69;;;-5.99;100.00
75290;BME280;63883;48.996;20.804;2024-01-30T01:41:42;98634.50;;;-5.95;100.00
75290;BME280;63883;48.996;20.804;2024-01-30T01:44:08;98633.50;;;-5.85;100.00
75290;BME280;63883;48.996;20.804;2024-01-30T01:46:34;98647.44;;;-5.87;100.00
75290;BME280;63883;48.996;20.804;2024-01-30T01:49:01;98641.56;;;-5.76;100.00
75290;BME280;63883;48.996;20.804;2024-01-30T01:51:29;98635.50;;;-5.68;100.00
75290;BME280;63883;48.996;20.804;2024-01-30T01:53:57;98638.22;;;-5.65;100.00
75290;BME280;63883;48.996;20.804;2024-01-30T01:56:24;98632.16;;;-5.57;100.00
75290;BME280;63883;48.996;20.804;2024-01-30T01:58:50;98643.13;;;-5.53;100.00
75290;BME280;63883;48.996;20.804;2024-01-30T02:01:18;98634.59;;;-5.45;100.00
75290;BME280;63883;48.996;20.804;2024-01-30T02:03:46;98634.28;;;-5.49;100.00
75290;BME280;63883;48.996;20.804;2024-01-30T02:06:13;98632.84;;;-5.46;100.00
75290;BME280;63883;48.996;20.804;2024-01-30T02:08:40;98633.19;;;-5.41;100.00
75290;BME280;63883;48.996;20.804;2024-01-30T02:11:06;98633.44;;;-5.50;100.00
75290;BME280;63883;48.996;20.804;2024-01-30T02:13:31;98631.56;;;-5.41;100.00
75290;BME280;63883;48.996;20.804;2024-01-30T02:15:57;98638.69;;;-5.34;100.00
75290;BME280;63883;48.996;20.804;2024-01-30T02:18:22;98640.81;;;-5.27;100.00
75290;BME280;63883;48.996;20.804;2024-01-30T02:20:49;98635.16;;;-5.24;100.00
75290;BME280;63883;48.996;20.804;2024-01-30T02:23:16;98634.88;;;-5.29;100.00
75290;BME280;63883;48.996;20.804;2024-01-30T02:25:42;98636.09;;;-5.35;100.00
75290;BME280;63883;48.996;20.804;2024-01-30T02:28:13;98627.41;;;-5.29;100.00
75290;BME280;63883;48.996;20.804;2024-01-30T02:30:39;98632.44;;;-5.16;100.00
75290;BME280;63883;48.996;20.804;2024-01-30T02:33:05;98628.44;;;-5.14;100.00
75290;BME280;63883;48.996;20.804;2024-01-30T02:35:31;98625.84;;;-5.15;100.00
75290;BME280;63883;48.996;20.804;2024-01-30T02:37:57;98631.03;;;-5.12;100.00
75290;BME280;63883;48.996;20.804;2024-01-30T02:40:23;98631.72;;;-5.26;100.00
75290;BME280;63883;48.996;20.804;2024-01-30T02:42:48;98634.06;;;-5.16;100.00
75290;BME280;63883;48.996;20.804;2024-01-30T02:45:14;98630.34;;;-5.34;100.00
75290;BME280;63883;48.996;20.804;2024-01-30T02:47:40;98626.47;;;-5.42;100.00
75290;BME280;63883;48.996;20.804;2024-01-30T02:50:06;98621.09;;;-5.48;100.00
75290;BME280;63883;48.996;20.804;2024-01-30T02:52:32;98624.19;;;-5.39;100.00
75290;BME280;63883;48.996;20.804;2024-01-30T02:54:58;98625.38;;;-5.34;100.00
75290;BME280;63883;48.996;20.804;2024-01-30T02:57:23;98621.09;;;-5.24;100.00
75290;BME280;63883;48.996;20.804;2024-01-30T02:59:49;98616.28;;;-5.09;100.00
75290;BME280;63883;48.996;20.804;2024-01-30T03:02:15;98622.41;;;-5.04;100.00
75290;BME280;63883;48.996;20.804;2024-01-30T03:04:41;98621.84;;;-5.13;100.00
75290;BME280;63883;48.996;20.804;2024-01-30T03:07:07;98626.28;;;-5.21;100.00
75290;BME280;63883;48.996;20.804;2024-01-30T03:09:34;98632.38;;;-5.29;100.00
75290;BME280;63883;48.996;20.804;2024-01-30T03:11:59;98624.69;;;-5.20;100.00
75290;BME280;63883;48.996;20.804;2024-01-30T03:14:26;98621.78;;;-5.26;100.00
75290;BME280;63883;48.996;20.804;2024-01-30T03:16:52;98623.13;;;-5.18;100.00
75290;BME280;63883;48.996;20.804;2024-01-30T03:19:17;98619.88;;;-5.17;100.00
75290;BME280;63883;48.996;20.804;2024-01-30T03:21:44;98621.56;;;-5.29;100.00
75290;BME280;63883;48.996;20.804;2024-01-30T03:24:10;98612.44;;;-5.17;100.00
75290;BME280;63883;48.996;20.804;2024-01-30T03:26:35;98611.88;;;-5.38;100.00
75290;BME280;63883;48.996;20.804;2024-01-30T03:29:01;98619.44;;;-5.36;100.00
75290;BME280;63883;48.996;20.804;2024-01-30T03:31:27;98623.31;;;-5.40;100.00
75290;BME280;63883;48.996;20.804;2024-01-30T03:33:52;98624.28;;;-5.38;100.00
75290;BME280;63883;48.996;20.804;2024-01-30T03:36:19;98617.28;;;-5.43;100.00
75290;BME280;63883;48.996;20.804;2024-01-30T03:38:45;98624.00;;;-5.42;100.00
75290;BME280;63883;48.996;20.804;2024-01-30T03:41:10;98613.31;;;-5.41;100.00
75290;BME280;63883;48.996;20.804;2024-01-30T03:43:36;98616.59;;;-5.29;100.00
75290;BME280;63883;48.996;20.804;2024-01-30T03:46:03;98617.41;;;-5.17;100.00
75290;BME280;63883;48.996;20.804;2024-01-30T03:48:29;98623.56;;;-5.12;100.00
75290;BME280;63883;48.996;20.804;2024-01-30T03:50:55;98617.38;;;-5.05;100.00
75290;BME280;63883;48.996;20.804;2024-01-30T03:53:21;98612.19;;;-5.08;100.00
75290;BME280;63883;48.996;20.804;2024-01-30T03:55:47;98613.19;;;-4.93;100.00
75290;BME280;63883;48.996;20.804;2024-01-30T03:58:13;98615.16;;;-5.01;100.00
75290;BME280;63883;48.996;20.804;2024-01-30T04:00:38;98604.81;;;-5.07;100.00
75290;BME280;63883;48.996;20.804;2024-01-30T04:03:04;98606.47;;;-4.94;100.00
75290;BME280;63883;48.996;20.804;2024-01-30T04:05:30;98598.88;;;-4.84;100.00
75290;BME280;63883;48.996;20.804;2024-01-30T04:07:56;98603.22;;;-4.68;100.00
75290;BME280;63883;48.996;20.804;2024-01-30T04:10:21;98599.06;;;-4.68;100.00
75290;BME280;63883;48.996;20.804;2024-01-30T04:12:47;98600.28;;;-4.75;100.00
75290;BME280;63883;48.996;20.804;2024-01-30T04:15:13;98606.69;;;-4.91;100.00
75290;BME280;63883;48.996;20.804;2024-01-30T04:17:39;98602.09;;;-4.98;100.00
75290;BME280;63883;48.996;20.804;2024-01-30T04:20:05;98603.34;;;-4.92;100.00
75290;BME280;63883;48.996;20.804;2024-01-30T04:22:31;98601.91;;;-4.88;100.00
75290;BME280;63883;48.996;20.804;2024-01-30T04:24:57;98608.72;;;-4.73;100.00
75290;BME280;63883;48.996;20.804;2024-01-30T04:27:23;98613.91;;;-4.83;100.00
75290;BME280;63883;48.996;20.804;2024-01-30T04:29:49;98611.94;;;-4.62;100.00
75290;BME280;63883;48.996;20.804;2024-01-30T04:32:14;98608.13;;;-4.82;100.00
75290;BME280;63883;48.996;20.804;2024-01-30T04:34:40;98610.41;;;-5.23;100.00
75290;BME280;63883;48.996;20.804;2024-01-30T04:37:06;98609.00;;;-5.19;100.00
75290;BME280;63883;48.996;20.804;2024-01-30T04:39:34;98614.03;;;-5.18;100.00
75290;BME280;63883;48.996;20.804;2024-01-30T04:42:00;98610.66;;;-5.06;100.00
75290;BME280;63883;48.996;20.804;2024-01-30T04:44:26;98602.69;;;-5.14;100.00
75290;BME280;63883;48.996;20.804;2024-01-30T04:46:52;98616.28;;;-5.09;100.00
75290;BME280;63883;48.996;20.804;2024-01-30T04:49:17;98615.25;;;-5.13;100.00
75290;BME280;63883;48.996;20.804;2024-01-30T04:51:43;98613.81;;;-5.09;100.00
75290;BME280;63883;48.996;20.804;2024-01-30T04:54:08;98620.69;;;-5.30;100.00
75290;BME280;63883;48.996;20.804;2024-01-30T04:56:34;98624.81;;;-5.30;100.00
75290;BME280;63883;48.996;20.804;2024-01-30T04:59:02;98624.06;;;-5.29;100.00
75290;BME280;63883;48.996;20.804;2024-01-30T05:01:28;98624.63;;;-5.33;100.00
75290;BME280;63883;48.996;20.804;2024-01-30T05:03:53;98632.78;;;-5.23;100.00
75290;BME280;63883;48.996;20.804;2024-01-30T05:06:26;98626.91;;;-5.36;100.00
75290;BME280;63883;48.996;20.804;2024-01-30T05:08:52;98620.34;;;-5.23;100.00
75290;BME280;63883;48.996;20.804;2024-01-30T05:11:17;98620.91;;;-5.27;100.00
75290;BME280;63883;48.996;20.804;2024-01-30T05:13:43;98619.88;;;-5.17;100.00
75290;BME280;63883;48.996;20.804;2024-01-30T05:16:09;98627.06;;;-5.22;100.00
75290;BME280;63883;48.996;20.804;2024-01-30T05:18:34;98627.16;;;-5.20;100.00
75290;BME280;63883;48.996;20.804;2024-01-30T05:21:02;98634.06;;;-5.16;100.00
75290;BME280;63883;48.996;20.804;2024-01-30T05:23:27;98637.00;;;-5.22;100.00
75290;BME280;63883;48.996;20.804;2024-01-30T05:25:53;98630.41;;;-5.21;100.00
75290;BME280;63883;48.996;20.804;2024-01-30T05:28:19;98636.94;;;-5.10;100.00
75290;BME280;63883;48.996;20.804;2024-01-30T05:30:44;98635.28;;;-5.23;100.00
75290;BME280;63883;48.996;20.804;2024-01-30T05:33:10;98625.25;;;-5.11;100.00
75290;BME280;63883;48.996;20.804;2024-01-30T05:35:38;98628.19;;;-5.05;100.00
75290;BME280;63883;48.996;20.804;2024-01-30T05:38:03;98629.69;;;-5.07;100.00
75290;BME280;63883;48.996;20.804;2024-01-30T05:40:30;98628.22;;;-4.92;100.00
75290;BME280;63883;48.996;20.804;2024-01-30T05:42:56;98624.75;;;-4.94;100.00
75290;BME280;63883;48.996;20.804;2024-01-30T05:45:23;98628.41;;;-4.89;100.00
75290;BME280;63883;48.996;20.804;2024-01-30T05:47:49;98619.88;;;-5.17;100.00
75290;BME280;63883;48.996;20.804;2024-01-30T05:50:15;98624.47;;;-5.23;100.00
75290;BME280;63883;48.996;20.804;2024-01-30T05:52:40;98623.69;;;-5.22;100.00
75290;BME280;63883;48.996;20.804;2024-01-30T05:55:06;98628.91;;;-5.19;100.00
75290;BME280;63883;48.996;20.804;2024-01-30T05:57:32;98630.34;;;-5.09;100.00
75290;BME280;63883;48.996;20.804;2024-01-30T05:59:58;98634.63;;;-5.20;100.00
75290;BME280;63883;48.996;20.804;2024-01-30T06:02:24;98631.06;;;-5.24;100.00
75290;BME280;63883;48.996;20.804;2024-01-30T06:04:49;98634.50;;;-5.22;100.00
75290;BME280;63883;48.996;20.804;2024-01-30T06:07:15;98632.94;;;-5.08;100.00
75290;BME280;63883;48.996;20.804;2024-01-30T06:09:41;98634.56;;;-5.08;100.00
75290;BME280;63883;48.996;20.804;2024-01-30T06:12:07;98638.88;;;-5.06;100.00
75290;BME280;63883;48.996;20.804;2024-01-30T06:14:32;98633.16;;;-5.05;100.00
75290;BME280;63883;48.996;20.804;2024-01-30T06:16:59;98632.66;;;-5.13;100.00
75290;BME280;63883;48.996;20.804;2024-01-30T06:19:25;98639.66;;;-5.07;100.00
75290;BME280;63883;48.996;20.804;2024-01-30T06:21:50;98638.13;;;-5.05;100.00
75290;BME280;63883;48.996;20.804;2024-01-30T06:24:16;98650.69;;;-5.15;100.00
75290;BME280;63883;48.996;20.804;2024-01-30T06:26:42;98645.84;;;-5.14;100.00
75290;BME280;63883;48.996;20.804;2024-01-30T06:29:08;98648.44;;;-5.12;100.00
75290;BME280;63883;48.996;20.804;2024-01-30T06:31:39;98649.66;;;-5.19;100.00
75290;BME280;63883;48.996;20.804;2024-01-30T06:34:05;98646.38;;;-5.18;100.00
75290;BME280;63883;48.996;20.804;2024-01-30T06:36:31;98645.72;;;-5.15;100.00
75290;BME280;63883;48.996;20.804;2024-01-30T06:38:56;98652.63;;;-5.11;100.00
75290;BME280;63883;48.996;20.804;2024-01-30T06:41:22;98643.00;;;-5.06;100.00
75290;BME280;63883;48.996;20.804;2024-01-30T06:43:48;98651.34;;;-5.18;100.00
75290;BME280;63883;48.996;20.804;2024-01-30T06:46:13;98650.28;;;-5.21;100.00
75290;BME280;63883;48.996;20.804;2024-01-30T06:48:39;98655.06;;;-5.24;100.00
75290;BME280;63883;48.996;20.804;2024-01-30T06:51:06;98647.41;;;-5.27;100.00
75290;BME280;63883;48.996;20.804;2024-01-30T06:53:31;98654.09;;;-5.26;100.00
75290;BME280;63883;48.996;20.804;2024-01-30T06:55:57;98654.94;;;-5.26;100.00
75290;BME280;63883;48.996;20.804;2024-01-30T06:58:23;98651.28;;;-5.31;100.00
75290;BME280;63883;48.996;20.804;2024-01-30T07:00:48;98651.47;;;-5.16;100.00
75290;BME280;63883;48.996;20.804;2024-01-30T07:03:14;98661.69;;;-5.00;100.00
75290;BME280;63883;48.996;20.804;2024-01-30T07:05:40;98657.91;;;-5.06;100.00
75290;BME280;63883;48.996;20.804;2024-01-30T07:08:06;98663.00;;;-5.05;100.00
75290;BME280;63883;48.996;20.804;2024-01-30T07:10:32;98659.22;;;-4.87;100.00
75290;BME280;63883;48.996;20.804;2024-01-30T07:13:00;98670.50;;;-4.92;100.00
75290;BME280;63883;48.996;20.804;2024-01-30T07:15:26;98665.34;;;-4.82;100.00
75290;BME280;63883;48.996;20.804;2024-01-30T07:17:52;98667.09;;;-4.81;100.00
75290;BME280;63883;48.996;20.804;2024-01-30T07:20:17;98672.63;;;-4.85;100.00
75290;BME280;63883;48.996;20.804;2024-01-30T07:22:46;98670.66;;;-4.77;100.00
75290;BME280;63883;48.996;20.804;2024-01-30T07:25:13;98672.22;;;-4.53;100.00
75290;BME280;63883;48.996;20.804;2024-01-30T07:27:39;98677.53;;;-4.73;100.00
75290;BME280;63883;48.996;20.804;2024-01-30T07:30:05;98672.53;;;-4.86;100.00
75290;BME280;63883;48.996;20.804;2024-01-30T07:32:31;98670.25;;;-5.08;100.00
75290;BME280;63883;48.996;20.804;2024-01-30T07:34:57;98669.66;;;-5.04;100.00
75290;BME280;63883;48.996;20.804;2024-01-30T07:37:23;98669.78;;;-4.78;100.00
75290;BME280;63883;48.996;20.804;2024-01-30T07:39:48;98672.53;;;-4.61;100.00
75290;BME280;63883;48.996;20.804;2024-01-30T07:42:14;98671.56;;;-4.63;100.00
75290;BME280;63883;48.996;20.804;2024-01-30T07:44:40;98667.97;;;-4.80;100.00
75290;BME280;63883;48.996;20.804;2024-01-30T07:47:05;98670.13;;;-4.60;100.00
75290;BME280;63883;48.996;20.804;2024-01-30T07:49:31;98667.94;;;-4.55;100.00
75290;BME280;63883;48.996;20.804;2024-01-30T07:51:57;98671.19;;;-4.56;100.00
75290;BME280;63883;48.996;20.804;2024-01-30T07:54:22;98660.56;;;-4.54;100.00
75290;BME280;63883;48.996;20.804;2024-01-30T07:56:49;98660.13;;;-4.22;100.00
75290;BME280;63883;48.996;20.804;2024-01-30T07:59:14;98660.50;;;-4.16;100.00
75290;BME280;63883;48.996;20.804;2024-01-30T08:01:40;98660.72;;;-4.00;100.00
75290;BME280;63883;48.996;20.804;2024-01-30T08:04:06;98657.81;;;-3.79;100.00
75290;BME280;63883;48.996;20.804;2024-01-30T08:06:31;98661.41;;;-3.89;100.00
75290;BME280;63883;48.996;20.804;2024-01-30T08:08:57;98657.63;;;-3.96;100.00
75290;BME280;63883;48.996;20.804;2024-01-30T08:11:24;98660.63;;;-4.14;100.00
75290;BME280;63883;48.996;20.804;2024-01-30T08:13:55;98655.13;;;-4.48;100.00
75290;BME280;63883;48.996;20.804;2024-01-30T08:16:20;98665.44;;;-4.55;100.00
75290;BME280;63883;48.996;20.804;2024-01-30T08:18:46;98659.84;;;-4.40;100.00
75290;BME280;63883;48.996;20.804;2024-01-30T08:21:12;98651.13;;;-4.33;100.00
75290;BME280;63883;48.996;20.804;2024-01-30T08:23:38;98649.44;;;-4.59;100.00
75290;BME280;63883;48.996;20.804;2024-01-30T08:26:05;98657.59;;;-4.61;100.00
75290;BME280;63883;48.996;20.804;2024-01-30T08:28:31;98653.28;;;-4.64;100.00
75290;BME280;63883;48.996;20.804;2024-01-30T08:30:56;98657.63;;;-4.48;100.00
75290;BME280;63883;48.996;20.804;2024-01-30T08:33:22;98650.31;;;-4.58;100.00
75290;BME280;63883;48.996;20.804;2024-01-30T08:35:48;98657.25;;;-4.41;100.00
75290;BME280;63883;48.996;20.804;2024-01-30T08:38:14;98652.47;;;-4.12;100.00
75290;BME280;63883;48.996;20.804;2024-01-30T08:40:40;98649.63;;;-4.18;100.00
75290;BME280;63883;48.996;20.804;2024-01-30T08:43:05;98653.63;;;-4.33;100.00
75290;BME280;63883;48.996;20.804;2024-01-30T08:45:31;98650.75;;;-4.13;100.00
75290;BME280;63883;48.996;20.804;2024-01-30T08:47:57;98654.00;;;-4.27;100.00
75290;BME280;63883;48.996;20.804;2024-01-30T08:50:22;98637.72;;;-4.35;100.00
75290;BME280;63883;48.996;20.804;2024-01-30T08:52:48;98649.63;;;-4.18;100.00
75290;BME280;63883;48.996;20.804;2024-01-30T08:55:14;98649.19;;;-4.24;100.00
75290;BME280;63883;48.996;20.804;2024-01-30T08:57:39;98647.38;;;-3.87;100.00
75290;BME280;63883;48.996;20.804;2024-01-30T09:00:05;98653.97;;;-3.61;100.00
75290;BME280;63883;48.996;20.804;2024-01-30T09:02:34;98649.38;;;-3.55;100.00
75290;BME280;63883;48.996;20.804;2024-01-30T09:05:00;98650.50;;;-3.22;100.00
75290;BME280;63883;48.996;20.804;2024-01-30T09:07:26;98644.50;;;-3.26;100.00
75290;BME280;63883;48.996;20.804;2024-01-30T09:09:52;98642.31;;;-3.06;100.00
75290;BME280;63883;48.996;20.804;2024-01-30T09:12:17;98646.06;;;-3.13;100.00
75290;BME280;63883;48.996;20.804;2024-01-30T09:14:43;98637.31;;;-3.06;100.00
75290;BME280;63883;48.996;20.804;2024-01-30T09:17:09;98644.53;;;-3.39;100.00
75290;BME280;63883;48.996;20.804;2024-01-30T09:19:35;98634.41;;;-2.99;100.00
75290;BME280;63883;48.996;20.804;2024-01-30T09:22:00;98628.38;;;-3.03;100.00
75290;BME280;63883;48.996;20.804;2024-01-30T09:24:27;98630.06;;;-2.45;100.00
75290;BME280;63883;48.996;20.804;2024-01-30T09:26:53;98635.13;;;-2.28;100.00
75290;BME280;63883;48.996;20.804;2024-01-30T09:29:19;98629.81;;;-2.64;100.00
75290;BME280;63883;48.996;20.804;2024-01-30T09:31:45;98624.38;;;-2.27;100.00
75290;BME280;63883;48.996;20.804;2024-01-30T09:34:11;98627.97;;;-2.66;100.00
75290;BME280;63883;48.996;20.804;2024-01-30T09:36:37;98621.97;;;-2.26;100.00
75290;BME280;63883;48.996;20.804;2024-01-30T09:39:03;98621.19;;;-2.25;100.00
75290;BME280;63883;48.996;20.804;2024-01-30T09:41:32;98614.91;;;-2.62;100.00
75290;BME280;63883;48.996;20.804;2024-01-30T09:43:59;98625.63;;;-2.93;100.00
75290;BME280;63883;48.996;20.804;2024-01-30T09:46:27;98623.06;;;-2.65;100.00
75290;BME280;63883;48.996;20.804;2024-01-30T09:48:55;98623.94;;;-2.20;100.00
75290;BME280;63883;48.996;20.804;2024-01-30T09:51:22;98621.34;;;-2.22;100.00
75290;BME280;63883;48.996;20.804;2024-01-30T09:53:48;98615.56;;;-2.21;100.00
75290;BME280;63883;48.996;20.804;2024-01-30T09:56:14;98606.94;;;-2.11;100.00
75290;BME280;63883;48.996;20.804;2024-01-30T09:58:40;98612.53;;;-2.01;100.00
75290;BME280;63883;48.996;20.804;2024-01-30T10:01:06;98606.06;;;-1.97;100.00
75290;BME280;63883;48.996;20.804;2024-01-30T10:03:31;98611.69;;;-2.30;100.00
75290;BME280;63883;48.996;20.804;2024-01-30T10:05:58;98600.00;;;-2.31;100.00
75290;BME280;63883;48.996;20.804;2024-01-30T10:08:23;98592.38;;;-2.04;100.00
75290;BME280;63883;48.996;20.804;2024-01-30T10:10:49;98584.00;;;-1.57;100.00
75290;BME280;63883;48.996;20.804;2024-01-30T10:13:16;98583.38;;;-1.69;100.00
75290;BME280;63883;48.996;20.804;2024-01-30T10:15:42;98573.72;;;-1.47;100.00
75290;BME280;63883;48.996;20.804;2024-01-30T10:18:10;98569.13;;;-1.23;100.00
75290;BME280;63883;48.996;20.804;2024-01-30T10:20:36;98570.88;;;-1.04;100.00
75290;BME280;63883;48.996;20.804;2024-01-30T10:23:02;98565.78;;;-1.22;100.00
75290;BME280;63883;48.996;20.804;2024-01-30T10:25:30;98566.28;;;-1.13;100.00
75290;BME280;63883;48.996;20.804;2024-01-30T10:27:57;98557.78;;;-0.83;100.00
75290;BME280;63883;48.996;20.804;2024-01-30T10:30:24;98557.81;;;-1.64;100.00
75290;BME280;63883;48.996;20.804;2024-01-30T10:32:50;98553.47;;;-1.51;100.00
75290;BME280;63883;48.996;20.804;2024-01-30T10:35:17;98552.94;;;-1.30;100.00
75290;BME280;63883;48.996;20.804;2024-01-30T10:37:47;98549.59;;;-1.12;100.00
75290;BME280;63883;48.996;20.804;2024-01-30T10:40:14;98552.00;;;-0.98;100.00
75290;BME280;63883;48.996;20.804;2024-01-30T10:42:45;98549.81;;;-0.92;100.00
75290;BME280;63883;48.996;20.804;2024-01-30T10:45:13;98539.66;;;-0.95;100.00
75290;BME280;63883;48.996;20.804;2024-01-30T10:47:54;98544.06;;;-0.73;100.00
75290;BME280;63883;48.996;20.804;2024-01-30T10:50:24;98537.47;;;-0.35;100.00
75290;BME280;63883;48.996;20.804;2024-01-30T10:52:50;98534.19;;;-1.04;100.00
75290;BME280;63883;48.996;20.804;2024-01-30T10:55:18;98528.69;;;-0.97;100.00
75290;BME280;63883;48.996;20.804;2024-01-30T10:57:43;98524.38;;;-0.48;100.00
75290;BME280;63883;48.996;20.804;2024-01-30T11:00:14;98528.41;;;0.21;100.00
75290;BME280;63883;48.996;20.804;2024-01-30T11:02:45;98526.75;;;0.60;100.00
75290;BME280;63883;48.996;20.804;2024-01-30T11:05:12;98523.06;;;0.33;100.00
75290;BME280;63883;48.996;20.804;2024-01-30T11:07:39;98521.00;;;0.82;100.00
75290;BME280;63883;48.996;20.804;2024-01-30T11:10:08;98519.50;;;1.48;100.00
75290;BME280;63883;48.996;20.804;2024-01-30T11:12:40;98515.84;;;2.27;100.00
75290;BME280;63883;48.996;20.804;2024-01-30T11:17:53;98509.19;;;2.52;100.00
75290;BME280;63883;48.996;20.804;2024-01-30T11:20:25;98504.44;;;3.10;100.00
75290;BME280;63883;48.996;20.804;2024-01-30T11:22:52;98509.03;;;3.22;98.56
75290;BME280;63883;48.996;20.804;2024-01-30T11:25:22;98503.53;;;3.33;95.27
75290;BME280;63883;48.996;20.804;2024-01-30T11:27:54;98496.75;;;3.58;100.00
75290;BME280;63883;48.996;20.804;2024-01-30T11:33:08;98489.06;;;3.28;98.12
75290;BME280;63883;48.996;20.804;2024-01-30T11:38:05;98478.13;;;3.27;99.39
75290;BME280;63883;48.996;20.804;2024-01-30T11:40:32;98486.09;;;3.95;96.11
75290;BME280;63883;48.996;20.804;2024-01-30T11:42:59;98485.53;;;4.64;89.80
75290;BME280;63883;48.996;20.804;2024-01-30T11:45:28;98482.16;;;4.34;92.14
75290;BME280;63883;48.996;20.804;2024-01-30T11:47:55;98470.63;;;4.74;89.58
75290;BME280;63883;48.996;20.804;2024-01-30T11:50:21;98472.13;;;4.67;90.82
75290;BME280;63883;48.996;20.804;2024-01-30T11:52:48;98473.16;;;4.74;89.64
75290;BME280;63883;48.996;20.804;2024-01-30T11:55:14;98468.84;;;5.02;87.18
75290;BME280;63883;48.996;20.804;2024-01-30T11:57:41;98464.06;;;4.80;87.82
75290;BME280;63883;48.996;20.804;2024-01-30T12:00:14;98459.38;;;4.95;88.77
75290;BME280;63883;48.996;20.804;2024-01-30T12:02:40;98457.94;;;5.41;84.41
75290;BME280;63883;48.996;20.804;2024-01-30T12:05:06;98453.69;;;5.38;82.51
75290;BME280;63883;48.996;20.804;2024-01-30T12:07:32;98448.53;;;5.71;79.90
75290;BME280;63883;48.996;20.804;2024-01-30T12:09:58;98447.44;;;5.24;79.57
75290;BME280;63883;48.996;20.804;2024-01-30T12:12:29;98451.66;;;5.24;79.96
75290;BME280;63883;48.996;20.804;2024-01-30T12:14:55;98439.53;;;5.10;84.00
75290;BME280;63883;48.996;20.804;2024-01-30T12:17:29;98440.00;;;4.96;81.92
75290;BME280;63883;48.996;20.804;2024-01-30T12:20:08;98446.50;;;5.57;81.17
75290;BME280;63883;48.996;20.804;2024-01-30T12:22:45;98434.88;;;6.02;76.13
75290;BME280;63883;48.996;20.804;2024-01-30T12:25:19;98434.16;;;4.98;79.96
75290;BME280;63883;48.996;20.804;2024-01-30T12:27:47;98425.22;;;5.47;79.92
75290;BME280;63883;48.996;20.804;2024-01-30T12:30:15;98421.28;;;5.60;79.45
75290;BME280;63883;48.996;20.804;2024-01-30T12:32:42;98419.63;;;5.24;83.01
75290;BME280;63883;48.996;20.804;2024-01-30T12:35:16;98412.94;;;5.28;86.11
75290;BME280;63883;48.996;20.804;2024-01-30T12:37:46;98408.41;;;5.88;85.94
75290;BME280;63883;48.996;20.804;2024-01-30T12:40:14;98412.03;;;6.01;84.59
75290;BME280;63883;48.996;20.804;2024-01-30T12:42:43;98401.59;;;6.27;83.09
75290;BME280;63883;48.996;20.804;2024-01-30T12:45:14;98393.97;;;6.26;85.58
75290;BME280;63883;48.996;20.804;2024-01-30T12:47:41;98404.16;;;6.29;83.95